createdAt,value
2023-03-20T00:02:01.566Z,1.70
2023-03-20T00:04:29.380Z,1.60
2023-03-20T00:06:58.296Z,1.75
2023-03-20T00:09:26.606Z,2.13
2023-03-20T00:11:55.916Z,1.80
2023-03-20T00:14:25.040Z,1.77
2023-03-20T00:16:53.277Z,1.60
2023-03-20T00:19:23.103Z,1.90
2023-03-20T00:21:51.446Z,1.58
2023-03-20T00:24:20.760Z,1.73
2023-03-20T00:26:50.276Z,2.22
2023-03-20T00:29:23.162Z,2.22
2023-03-20T00:31:50.801Z,2.10
2023-03-20T00:34:20.909Z,2.25
2023-03-20T00:36:48.447Z,2.00
2023-03-20T00:41:50.006Z,1.63
2023-03-20T00:44:23.100Z,2.28
2023-03-20T00:46:52.803Z,2.15
2023-03-20T00:49:23.442Z,2.10
2023-03-20T00:51:50.896Z,2.33
2023-03-20T00:54:18.905Z,2.42
2023-03-20T00:56:53.247Z,2.28
2023-03-20T00:59:24.934Z,2.10
2023-03-20T01:01:52.586Z,2.30
2023-03-20T01:04:21.680Z,2.40
2023-03-20T01:06:49.411Z,2.35
2023-03-20T01:09:17.027Z,2.47
2023-03-20T01:11:45.744Z,2.60
2023-03-20T01:14:17.812Z,2.28
2023-03-20T01:16:45.371Z,2.60
2023-03-20T01:19:14.686Z,2.10
2023-03-20T01:21:42.440Z,2.15
2023-03-20T01:24:10.417Z,2.13
2023-03-20T01:26:39.993Z,1.95
2023-03-20T01:29:19.524Z,2.13
2023-03-20T01:31:47.223Z,2.33
2023-03-20T01:34:16.268Z,2.53
2023-03-20T01:36:47.630Z,2.60
2023-03-20T01:39:15.675Z,2.00
2023-03-20T01:41:43.191Z,2.15
2023-03-20T01:44:22.138Z,2.38
2023-03-20T01:46:50.847Z,2.08
2023-03-20T01:49:55.481Z,1.77
2023-03-20T01:52:22.927Z,2.13
2023-03-20T01:54:50.812Z,1.77
2023-03-20T01:57:21.614Z,2.40
2023-03-20T01:59:53.020Z,3.13
2023-03-20T02:02:24.279Z,2.78
2023-03-20T02:04:57.087Z,2.63
2023-03-20T02:07:25.453Z,2.50
2023-03-20T02:09:53.096Z,2.70
2023-03-20T02:12:22.053Z,2.15
2023-03-20T02:14:53.069Z,2.33
2023-03-20T02:17:20.711Z,2.40
2023-03-20T02:20:03.308Z,2.10
2023-03-20T02:22:59.833Z,2.40
2023-03-20T02:25:42.647Z,2.33
2023-03-20T02:28:57.519Z,2.10
2023-03-20T02:31:57.883Z,2.20
2023-03-20T02:35:05.091Z,2.38
2023-03-20T02:37:49.380Z,2.30
2023-03-20T02:40:28.274Z,3.03
2023-03-20T02:43:03.684Z,2.45
2023-03-20T02:45:37.350Z,3.67
2023-03-20T02:48:15.221Z,3.85
2023-03-20T02:50:49.628Z,3.42
2023-03-20T02:53:32.254Z,2.55
2023-03-20T02:56:08.812Z,2.50
2023-03-20T02:58:44.503Z,3.17
2023-03-20T03:01:17.884Z,2.95
2023-03-20T03:03:50.411Z,2.88
2023-03-20T03:06:23.528Z,2.80
2023-03-20T03:08:57.072Z,2.90
2023-03-20T03:11:24.519Z,2.70
2023-03-20T03:13:55.415Z,3.10
2023-03-20T03:16:27.882Z,3.35
2023-03-20T03:19:02.957Z,3.30
2023-03-20T03:21:31.352Z,3.70
2023-03-20T03:24:01.284Z,3.78
2023-03-20T03:26:33.039Z,3.42
2023-03-20T03:29:03.768Z,2.88
2023-03-20T03:31:32.642Z,3.78
2023-03-20T03:34:02.375Z,3.72
2023-03-20T03:36:42.875Z,3.90
2023-03-20T03:39:22.275Z,3.35
2023-03-20T03:41:54.675Z,2.80
2023-03-20T03:44:27.389Z,3.60
2023-03-20T03:46:58.820Z,3.78
2023-03-20T03:49:31.612Z,4.45
2023-03-20T03:52:02.979Z,2.75
2023-03-20T03:54:37.258Z,4.45
2023-03-20T03:57:06.841Z,4.03
2023-03-20T03:59:37.154Z,2.90
2023-03-20T04:02:08.433Z,4.35
2023-03-20T04:04:39.940Z,3.30
2023-03-20T04:07:07.408Z,3.97
2023-03-20T04:09:36.235Z,5.20
2023-03-20T04:12:03.921Z,5.95
2023-03-20T04:14:31.374Z,5.38
2023-03-20T04:16:58.863Z,5.00
2023-03-20T04:19:26.634Z,5.68
2023-03-20T04:21:55.188Z,4.07
2023-03-20T04:24:23.212Z,4.82
2023-03-20T04:26:52.204Z,3.40
2023-03-20T04:29:19.676Z,5.68
2023-03-20T04:31:47.246Z,4.50
2023-03-20T04:34:14.979Z,5.43
2023-03-20T04:36:42.725Z,5.90
2023-03-20T04:39:10.435Z,4.93
2023-03-20T04:41:37.858Z,3.35
2023-03-20T04:44:06.721Z,5.72
2023-03-20T04:46:34.240Z,4.72
2023-03-20T04:49:01.839Z,4.40
2023-03-20T04:51:29.372Z,5.72
2023-03-20T04:53:56.903Z,5.85
2023-03-20T04:56:24.342Z,4.18
2023-03-20T04:58:51.764Z,7.38
2023-03-20T05:01:20.624Z,7.80
2023-03-20T05:03:48.092Z,8.48
2023-03-20T05:06:15.722Z,7.28
2023-03-20T05:08:43.170Z,6.40
2023-03-20T05:11:10.790Z,7.25
2023-03-20T05:13:38.244Z,6.85
2023-03-20T05:16:06.273Z,5.63
2023-03-20T05:18:35.101Z,5.65
2023-03-20T05:21:02.656Z,5.85
2023-03-20T05:23:30.459Z,5.75
2023-03-20T05:25:57.918Z,5.50
2023-03-20T05:28:25.577Z,6.15
2023-03-20T05:30:53.097Z,6.07
2023-03-20T05:33:20.824Z,5.47
2023-03-20T05:35:49.697Z,5.32
2023-03-20T05:38:17.210Z,4.97
2023-03-20T05:40:44.691Z,6.13
2023-03-20T05:43:12.119Z,6.03
2023-03-20T05:45:39.570Z,5.60
2023-03-20T05:48:07.614Z,5.38
2023-03-20T05:50:35.268Z,5.32
2023-03-20T05:53:04.222Z,4.85
2023-03-20T05:55:32.862Z,4.40
2023-03-20T05:58:00.531Z,5.28
2023-03-20T06:00:28.184Z,4.95
2023-03-20T06:02:57.166Z,5.13
2023-03-20T06:05:24.630Z,5.38
2023-03-20T06:07:52.108Z,5.03
2023-03-20T06:10:20.978Z,3.67
2023-03-20T06:12:48.440Z,3.95
2023-03-20T06:15:16.045Z,4.78
2023-03-20T06:17:43.482Z,4.72
2023-03-20T06:20:12.131Z,4.80
2023-03-20T06:22:39.640Z,2.75
2023-03-20T06:25:08.077Z,4.63
2023-03-20T06:27:36.914Z,3.83
2023-03-20T06:30:04.994Z,4.78
2023-03-20T06:32:32.871Z,4.10
2023-03-20T06:35:00.354Z,5.22
2023-03-20T06:37:27.921Z,4.18
2023-03-20T06:39:55.607Z,4.88
2023-03-20T06:42:23.035Z,5.80
2023-03-20T06:44:51.830Z,4.47
2023-03-20T06:47:19.325Z,4.78
2023-03-20T06:49:46.874Z,5.00
2023-03-20T06:52:17.480Z,5.28
2023-03-20T06:54:45.194Z,4.88
2023-03-20T06:57:15.341Z,4.60
2023-03-20T06:59:42.887Z,4.78
2023-03-20T07:02:12.127Z,4.88
2023-03-20T07:04:40.016Z,5.25
2023-03-20T07:07:07.665Z,4.25
2023-03-20T07:09:35.161Z,4.47
2023-03-20T07:12:02.681Z,3.42
2023-03-20T07:14:30.123Z,4.50
2023-03-20T07:16:57.706Z,4.68
2023-03-20T07:19:27.711Z,3.90
2023-03-20T07:22:01.723Z,4.38
2023-03-20T07:24:29.259Z,4.90
2023-03-20T07:26:56.987Z,4.68
2023-03-20T07:29:24.468Z,4.50
2023-03-20T07:31:52.096Z,5.10
2023-03-20T07:34:19.720Z,4.18
2023-03-20T07:36:48.491Z,4.30
2023-03-20T07:39:16.737Z,3.95
2023-03-20T07:41:44.180Z,4.30
2023-03-20T07:44:11.673Z,3.65
2023-03-20T07:46:40.657Z,3.55
2023-03-20T07:49:08.281Z,2.92
2023-03-20T07:51:35.797Z,3.25
2023-03-20T07:54:05.006Z,3.28
2023-03-20T07:56:32.462Z,2.38
2023-03-20T07:58:59.924Z,3.58
2023-03-20T08:01:27.444Z,3.80
2023-03-20T08:03:55.129Z,3.45
2023-03-20T08:06:22.621Z,3.53
2023-03-20T08:08:52.390Z,3.50
2023-03-20T08:11:21.645Z,3.20
2023-03-20T08:13:49.275Z,3.33
2023-03-20T08:16:16.778Z,3.78
2023-03-20T08:18:44.310Z,3.40
2023-03-20T08:21:12.400Z,3.38
2023-03-20T08:23:39.874Z,3.50
2023-03-20T08:26:07.694Z,2.70
2023-03-20T08:28:47.138Z,2.88
2023-03-20T08:31:15.486Z,2.25
2023-03-20T08:33:42.979Z,2.53
2023-03-20T08:36:10.744Z,3.10
2023-03-20T08:38:38.468Z,3.13
2023-03-20T08:41:07.869Z,2.65
2023-03-20T08:43:37.247Z,2.70
2023-03-20T08:46:05.403Z,2.83
2023-03-20T08:48:33.130Z,2.53
2023-03-20T08:51:00.737Z,3.70
2023-03-20T08:53:28.238Z,3.60
2023-03-20T08:55:56.473Z,2.75
2023-03-20T08:58:24.109Z,2.45
2023-03-20T09:00:52.913Z,3.05
2023-03-20T09:03:22.153Z,0.22
2023-03-20T09:05:52.115Z,2.80
2023-03-20T09:08:19.939Z,1.73
2023-03-20T09:10:48.335Z,2.42
2023-03-20T09:13:26.763Z,1.58
2023-03-20T09:15:58.080Z,2.20
2023-03-20T09:18:27.335Z,2.35
2023-03-20T09:20:56.349Z,3.35
2023-03-20T09:23:23.849Z,1.95
2023-03-20T09:25:51.384Z,1.75
2023-03-20T09:28:18.858Z,3.00
2023-03-20T09:30:46.782Z,2.38
2023-03-20T09:33:15.901Z,1.85
2023-03-20T09:35:43.893Z,1.98
2023-03-20T09:38:12.149Z,2.97
2023-03-20T09:40:51.487Z,2.22
2023-03-20T09:43:38.681Z,2.20
2023-03-20T09:46:19.463Z,2.40
2023-03-20T09:48:54.891Z,2.08
2023-03-20T09:51:29.370Z,2.38
2023-03-20T09:54:01.593Z,1.52
2023-03-20T09:56:31.539Z,2.10
2023-03-20T09:59:02.069Z,2.92
2023-03-20T10:01:34.226Z,2.33
2023-03-20T10:04:08.953Z,1.95
2023-03-20T10:09:13.401Z,2.03
2023-03-20T10:11:59.703Z,1.35
2023-03-20T10:14:34.879Z,2.42
2023-03-20T10:17:12.151Z,2.20
2023-03-20T10:19:45.511Z,1.92
2023-03-20T10:22:25.205Z,1.80
2023-03-20T10:24:56.660Z,1.95
2023-03-20T10:27:28.176Z,1.65
2023-03-20T10:30:12.329Z,2.00
2023-03-20T10:32:49.138Z,2.38
2023-03-20T10:35:27.168Z,1.92
2023-03-20T10:38:06.290Z,2.58
2023-03-20T10:40:37.420Z,2.92
2023-03-20T10:43:12.433Z,1.55
2023-03-20T10:45:44.861Z,2.10
2023-03-20T10:48:19.034Z,2.75
2023-03-20T10:50:51.735Z,2.05
2023-03-20T10:53:27.488Z,1.30
2023-03-20T10:55:59.295Z,2.50
2023-03-20T10:58:30.567Z,2.20
2023-03-20T11:00:59.460Z,1.92
2023-03-20T11:03:29.441Z,2.33
2023-03-20T11:06:09.778Z,2.53
2023-03-20T11:08:41.409Z,2.72
2023-03-20T11:11:09.610Z,2.95
2023-03-20T11:13:39.621Z,3.35
2023-03-20T11:16:17.527Z,3.97
2023-03-20T11:18:45.281Z,2.78
2023-03-20T11:21:19.811Z,4.10
2023-03-20T11:23:47.494Z,3.33
2023-03-20T11:26:17.255Z,2.83
2023-03-20T11:28:51.027Z,2.20
2023-03-20T11:31:21.260Z,3.08
2023-03-20T11:33:53.580Z,3.28
2023-03-20T11:36:27.936Z,3.35
2023-03-20T11:39:02.250Z,3.13
2023-03-20T11:41:30.078Z,3.45
2023-03-20T11:43:57.553Z,2.42
2023-03-20T11:46:26.440Z,2.75
2023-03-20T11:49:06.415Z,2.67
2023-03-20T11:51:38.005Z,2.80
2023-03-20T11:54:08.654Z,2.47
2023-03-20T11:56:37.513Z,2.78
2023-03-20T11:59:14.158Z,2.85
2023-03-20T12:01:47.260Z,2.83
2023-03-20T12:04:17.809Z,2.67
2023-03-20T12:06:51.874Z,1.95
2023-03-20T12:09:29.843Z,2.40
2023-03-20T12:12:02.055Z,2.10
2023-03-20T12:14:36.646Z,1.98
2023-03-20T12:17:28.508Z,2.05
2023-03-20T12:20:00.698Z,2.50
2023-03-20T12:22:34.449Z,2.40
2023-03-20T12:25:09.478Z,2.05
2023-03-20T12:27:40.774Z,1.55
2023-03-20T12:30:17.710Z,1.95
2023-03-20T12:32:51.944Z,2.10
2023-03-20T12:35:26.402Z,2.20
2023-03-20T12:37:55.520Z,1.95
2023-03-20T12:40:33.137Z,1.45
2023-03-20T12:43:05.836Z,2.47
2023-03-20T12:45:42.766Z,2.00
2023-03-20T12:48:36.791Z,2.60
2023-03-20T12:51:10.320Z,1.98
2023-03-20T12:53:52.746Z,1.70
2023-03-20T12:56:32.353Z,1.63
2023-03-20T12:59:07.694Z,1.92
2023-03-20T13:01:41.214Z,2.33
2023-03-20T13:04:30.979Z,1.92
2023-03-20T13:07:01.956Z,2.08
2023-03-20T13:09:57.626Z,1.83
2023-03-20T13:12:38.652Z,2.28
2023-03-20T13:15:21.596Z,1.85
2023-03-20T13:17:53.839Z,2.85
2023-03-20T13:20:27.863Z,2.53
2023-03-20T13:23:05.730Z,2.25
2023-03-20T13:25:54.530Z,1.65
2023-03-20T13:28:30.916Z,2.35
2023-03-20T13:31:07.046Z,1.67
2023-03-20T13:33:48.553Z,2.05
2023-03-20T13:36:28.062Z,1.85
2023-03-20T13:39:01.798Z,1.95
2023-03-20T13:41:30.913Z,2.35
2023-03-20T13:44:01.196Z,1.77
2023-03-20T13:46:36.035Z,2.10
2023-03-20T13:49:09.062Z,2.05
2023-03-20T13:51:42.990Z,3.75
2023-03-20T13:54:34.821Z,3.03
2023-03-20T13:57:15.394Z,4.65
2023-03-20T13:59:51.549Z,3.25
2023-03-20T14:02:35.533Z,1.67
2023-03-20T14:05:07.599Z,2.35
2023-03-20T14:07:37.018Z,3.28
2023-03-20T14:10:35.972Z,1.73
2023-03-20T14:13:08.383Z,2.78
2023-03-20T14:15:38.017Z,3.38
2023-03-20T14:18:07.472Z,3.40
2023-03-20T14:20:37.849Z,2.53
2023-03-20T14:23:07.262Z,2.00
2023-03-20T14:25:40.422Z,3.60
2023-03-20T14:28:27.073Z,4.50
2023-03-20T14:31:14.154Z,3.33
2023-03-20T14:33:45.430Z,3.55
2023-03-20T14:36:22.347Z,4.10
2023-03-20T14:39:07.990Z,2.70
2023-03-20T14:41:50.259Z,2.58
2023-03-20T14:44:29.590Z,4.05
2023-03-20T14:47:03.833Z,2.75
2023-03-20T14:49:46.402Z,3.40
2023-03-20T14:52:27.364Z,3.08
2023-03-20T14:54:55.845Z,3.60
2023-03-20T14:57:34.083Z,4.20
2023-03-20T15:00:17.223Z,1.85
2023-03-20T15:02:49.294Z,4.22
2023-03-20T15:05:29.014Z,5.18
2023-03-20T15:07:58.956Z,3.05
2023-03-20T15:10:26.984Z,3.33
2023-03-20T15:12:55.697Z,3.78
2023-03-20T15:15:27.942Z,5.82
2023-03-20T15:17:55.720Z,2.90
2023-03-20T15:20:25.041Z,4.35
2023-03-20T15:22:57.506Z,3.72
2023-03-20T15:25:30.349Z,3.80
2023-03-20T15:27:57.875Z,3.63
2023-03-20T15:30:27.930Z,3.03
2023-03-20T15:32:56.101Z,3.33
2023-03-20T15:35:26.724Z,3.15
2023-03-20T15:37:56.569Z,3.53
2023-03-20T15:40:27.062Z,3.58
2023-03-20T15:42:57.982Z,4.22
2023-03-20T15:45:32.031Z,5.03
2023-03-20T15:48:05.774Z,4.55
2023-03-20T15:50:36.502Z,4.13
2023-03-20T15:53:05.291Z,3.80
2023-03-20T15:58:03.570Z,2.83
2023-03-20T16:00:35.332Z,3.35
2023-03-20T16:03:07.791Z,3.55
2023-03-20T16:05:36.414Z,3.13
2023-03-20T16:10:43.954Z,2.47
2023-03-20T16:13:17.023Z,3.20
2023-03-20T16:15:47.230Z,3.63
2023-03-20T16:18:17.322Z,3.03
2023-03-20T16:20:50.449Z,3.35
2023-03-20T16:23:30.377Z,3.65
2023-03-20T16:25:58.621Z,3.17
2023-03-20T16:28:26.843Z,9.80
2023-03-20T16:31:04.088Z,3.88
2023-03-20T16:33:31.795Z,2.85
2023-03-20T16:36:02.163Z,4.18
2023-03-20T16:38:32.332Z,3.20
2023-03-20T16:41:16.468Z,3.55
2023-03-20T16:43:48.303Z,2.65
2023-03-20T16:46:22.526Z,3.22
2023-03-20T16:48:52.147Z,2.85
2023-03-20T16:51:24.220Z,2.78
2023-03-20T16:53:56.316Z,3.20
2023-03-20T16:56:27.656Z,2.55
2023-03-20T16:58:56.849Z,2.97
2023-03-20T17:01:29.382Z,3.05
2023-03-20T17:03:59.171Z,2.95
2023-03-20T17:06:45.438Z,3.13
2023-03-20T17:09:23.167Z,3.10
2023-03-20T17:11:52.643Z,3.38
2023-03-20T17:14:20.178Z,2.83
2023-03-20T17:16:49.073Z,2.88
2023-03-20T17:19:18.584Z,2.50
2023-03-20T17:21:47.585Z,2.88
2023-03-20T17:24:16.580Z,2.88
2023-03-20T17:26:46.661Z,2.88
2023-03-20T17:29:14.948Z,2.55
2023-03-20T17:31:42.447Z,2.50
2023-03-20T17:34:14.572Z,3.42
2023-03-20T17:36:42.246Z,3.33
2023-03-20T17:39:22.340Z,3.05
2023-03-20T17:41:50.006Z,4.03
2023-03-20T17:44:17.446Z,3.95
2023-03-20T17:46:57.127Z,3.10
2023-03-20T17:49:27.934Z,3.45
2023-03-20T17:51:56.037Z,3.00
2023-03-20T17:54:23.562Z,3.30
2023-03-20T17:56:51.037Z,2.95
2023-03-20T17:59:18.545Z,3.53
2023-03-20T18:01:46.072Z,4.50
2023-03-20T18:04:13.653Z,3.95
2023-03-20T18:06:42.482Z,5.00
2023-03-20T18:09:13.324Z,4.82
2023-03-20T18:11:41.042Z,5.90
2023-03-20T18:14:08.513Z,4.95
2023-03-20T18:16:36.111Z,5.18
2023-03-20T18:19:03.716Z,4.93
2023-03-20T18:21:31.171Z,4.38
2023-03-20T18:23:59.967Z,5.70
2023-03-20T18:26:28.268Z,5.32
2023-03-20T18:28:56.707Z,5.20
2023-03-20T18:31:24.297Z,5.05
2023-03-20T18:33:53.352Z,4.05
2023-03-20T18:36:23.154Z,5.68
2023-03-20T18:38:51.695Z,5.15
2023-03-20T18:41:20.556Z,4.38
2023-03-20T18:43:48.290Z,4.40
2023-03-20T18:46:18.209Z,4.75
2023-03-20T18:48:46.784Z,4.60
2023-03-20T18:51:15.251Z,4.65
2023-03-20T18:53:43.718Z,5.07
2023-03-20T18:56:14.756Z,4.82
2023-03-20T18:58:44.209Z,6.03
2023-03-20T19:01:12.661Z,6.50
2023-03-20T19:03:41.437Z,6.05
2023-03-20T19:06:14.628Z,5.10
2023-03-20T19:08:42.471Z,4.05
2023-03-20T19:11:15.035Z,4.63
2023-03-20T19:13:47.166Z,3.72
2023-03-20T19:16:24.342Z,3.97
2023-03-20T19:18:52.967Z,4.35
2023-03-20T19:23:53.823Z,5.07
2023-03-20T19:26:22.262Z,4.60
2023-03-20T19:28:51.207Z,4.20
2023-03-20T19:31:18.743Z,4.50
2023-03-20T19:33:46.595Z,4.07
2023-03-20T19:36:24.666Z,4.10
2023-03-20T19:38:52.268Z,4.40
2023-03-20T19:41:20.306Z,3.63
2023-03-20T19:43:52.999Z,4.00
2023-03-20T19:46:38.808Z,4.43
2023-03-20T19:49:07.829Z,3.50
2023-03-20T19:51:35.370Z,3.67
2023-03-20T19:54:02.884Z,3.70
2023-03-20T19:56:31.125Z,3.80
2023-03-20T19:58:58.564Z,4.13
2023-03-20T20:01:27.425Z,3.55
2023-03-20T20:03:57.288Z,3.70
2023-03-20T20:06:31.229Z,3.97
2023-03-20T20:09:00.811Z,3.55
2023-03-20T20:11:28.317Z,3.83
2023-03-20T20:14:14.650Z,3.03
2023-03-20T20:16:45.271Z,3.53
2023-03-20T20:19:13.048Z,3.28
2023-03-20T20:24:28.404Z,3.40
2023-03-20T20:27:15.093Z,3.15
2023-03-20T20:29:46.995Z,2.78
2023-03-20T20:32:15.883Z,3.33
2023-03-20T20:40:21.226Z,4.18
2023-03-20T20:42:51.369Z,4.47
2023-03-20T20:45:20.758Z,4.20
2023-03-20T20:47:50.510Z,4.57
2023-03-20T20:50:20.640Z,4.45
2023-03-20T20:52:48.367Z,4.70
2023-03-20T20:55:23.015Z,5.90
2023-03-20T20:57:52.033Z,6.18
2023-03-20T21:00:21.145Z,5.15
2023-03-20T21:02:50.496Z,5.13
2023-03-20T21:05:18.767Z,3.53
2023-03-20T21:07:48.340Z,4.50
2023-03-20T21:10:18.357Z,3.38
2023-03-20T21:12:58.542Z,3.67
2023-03-20T21:18:01.474Z,2.47
2023-03-20T21:20:29.854Z,3.17
2023-03-20T21:22:57.397Z,3.15
2023-03-20T21:25:38.792Z,2.63
2023-03-20T21:28:07.176Z,2.92
2023-03-20T21:30:34.740Z,2.13
2023-03-20T21:33:03.637Z,2.28
2023-03-20T21:35:31.200Z,2.65
2023-03-20T21:38:55.506Z,2.72
2023-03-20T21:40:46.546Z,2.40
2023-03-20T21:43:16.043Z,3.25
2023-03-20T21:46:37.445Z,2.33
2023-03-20T21:52:20.082Z,2.33
2023-03-20T21:54:56.760Z,2.55
2023-03-20T21:57:52.492Z,2.22
2023-03-20T22:00:22.637Z,2.53
2023-03-20T22:02:33.038Z,2.28
2023-03-20T22:11:31.177Z,2.33
2023-03-20T22:17:20.504Z,2.67
2023-03-20T22:34:03.483Z,2.47
2023-03-20T22:47:06.951Z,2.10
2023-03-20T22:49:34.429Z,2.67
2023-03-20T22:52:22.527Z,2.53
2023-03-20T22:54:50.738Z,1.77
2023-03-20T22:57:18.443Z,2.10
2023-03-20T22:59:45.928Z,2.20
2023-03-20T23:02:13.385Z,1.95
2023-03-20T23:04:40.959Z,2.13
2023-03-20T23:07:08.428Z,2.00
2023-03-20T23:09:35.918Z,2.25
2023-03-20T23:12:05.135Z,1.50
2023-03-20T23:14:44.818Z,2.15
2023-03-20T23:17:13.183Z,2.05
2023-03-20T23:19:47.955Z,1.77
2023-03-20T23:22:19.856Z,1.45
2023-03-20T23:24:47.963Z,1.98
2023-03-20T23:27:19.094Z,1.48
2023-03-20T23:29:46.617Z,1.45
2023-03-20T23:32:14.177Z,1.38
2023-03-20T23:34:41.621Z,1.40
2023-03-20T23:37:09.168Z,1.35
2023-03-20T23:39:36.622Z,1.58
2023-03-20T23:42:17.247Z,1.83
2023-03-20T23:44:56.514Z,1.27
2023-03-20T23:47:30.020Z,1.00
2023-03-20T23:50:02.893Z,1.55
2023-03-20T23:52:30.555Z,0.82
2023-03-20T23:54:58.004Z,1.23
2023-03-20T23:57:25.487Z,1.40
2023-03-20T23:59:54.274Z,1.27
